Time;durP1;ratioP1;P1;durP2;ratioP2;P2;SDS_P1;SDS_P2;PMS_P1;PMS_P2;Temp;Humidity;BMP_temperature;BMP_pressure;BME280_temperature;BME280_humidity;BME280_pressure;Samples;Min_cycle;Max_cycle;Signal;HPM_P1;HPM_P2
2023/06/28 00:01:17;;;;;;;;;4.00;3.67;;;;;20.41;65.53;101636.16;5057238;28;45398;-74
2023/06/28 00:03:42;;;;;;;;;3.67;2.33;;;;;20.41;64.78;101640.63;5057298;28;46248;-74
2023/06/28 00:06:08;;;;;;;;;5.00;3.33;;;;;20.34;64.26;101626.69;5060556;28;45239;-74
2023/06/28 00:08:33;;;;;;;;;4.00;3.00;;;;;20.30;66.24;101631.34;5059461;28;45380;-75
2023/06/28 00:10:59;;;;;;;;;5.33;3.00;;;;;20.14;65.63;101604.50;5060573;28;45254;-77
2023/06/28 00:13:24;;;;;;;;;2.00;2.00;;;;;20.32;66.38;101637.47;5060633;28;46593;-75
2023/06/28 00:15:49;;;;;;;;;4.00;3.00;;;;;20.28;66.71;101629.69;5060457;28;45206;-74
2023/06/28 00:18:15;;;;;;;;;5.00;3.67;;;;;20.32;66.52;101637.47;5059302;28;45368;-75
2023/06/28 00:20:43;;;;;;;;;2.33;2.33;;;;;20.25;66.06;101621.81;5040559;28;45329;-75
2023/06/28 00:23:09;;;;;;;;;3.00;3.00;;;;;20.29;66.68;101634.09;5040141;28;45336;-73
2023/06/28 00:25:35;;;;;;;;;3.00;3.00;;;;;20.28;66.39;101624.34;5039185;28;45421;-75
2023/06/28 00:28:00;;;;;;;;;3.67;2.33;;;;;20.26;66.55;101626.19;5040237;28;45337;-75
2023/06/28 00:30:26;;;;;;;;;3.33;2.00;;;;;20.27;65.95;101618.09;5052846;28;45609;-76
2023/06/28 00:32:52;;;;;;;;;4.33;4.33;;;;;20.27;66.63;101625.25;5060217;28;46418;-76
2023/06/28 00:35:17;;;;;;;;;4.00;2.33;;;;;20.25;67.07;101613.78;5060151;28;45476;-74
2023/06/28 00:37:43;;;;;;;;;2.00;2.00;;;;;20.20;67.17;101614.03;5060377;28;45135;-75
2023/06/28 00:40:08;;;;;;;;;2.67;2.00;;;;;20.17;66.54;101609.69;5058627;28;45230;-73
2023/06/28 00:42:34;;;;;;;;;6.33;3.00;;;;;20.26;66.50;101624.41;5039914;28;45425;-74
2023/06/28 00:45:00;;;;;;;;;4.00;3.33;;;;;20.13;66.75;101596.56;5040025;28;45194;-75
2023/06/28 00:47:27;;;;;;;;;4.33;2.67;;;;;20.24;67.46;101618.25;5039964;28;45506;-76
2023/06/28 00:49:55;;;;;;;;;5.00;3.00;;;;;20.19;67.46;101614.97;5054579;28;45365;-77
2023/06/28 00:52:21;;;;;;;;;4.00;2.67;;;;;20.18;66.60;101607.88;5060042;28;45528;-78
2023/06/28 00:54:46;;;;;;;;;3.00;3.00;;;;;20.11;67.67;101593.97;5059861;28;45262;-78
2023/06/28 00:57:12;;;;;;;;;3.00;2.67;;;;;20.16;68.14;101602.59;5059953;28;45260;-78
2023/06/28 00:59:38;;;;;;;;;4.00;2.33;;;;;20.10;67.98;101592.22;5060045;28;45416;-77
2023/06/28 01:02:03;;;;;;;;;6.33;2.67;;;;;20.16;68.33;101610.63;5059641;28;46554;-77
2023/06/28 01:04:29;;;;;;;;;3.67;2.00;;;;;20.20;68.51;101605.13;5046833;28;45366;-78
2023/06/28 01:06:59;;;;;;;;;4.00;3.00;;;;;20.15;69.02;101594.66;5050869;28;45493;-75
2023/06/28 01:09:27;;;;;;;;;4.00;3.00;;;;;20.22;68.59;101614.81;5059990;28;45512;-74
2023/06/28 01:11:54;;;;;;;;;4.33;3.00;;;;;20.22;68.62;101613.94;5059472;28;45387;-75
2023/06/28 01:14:22;;;;;;;;;3.67;3.00;;;;;20.17;69.20;101608.81;5057973;28;45208;-75
2023/06/28 01:16:54;;;;;;;;;5.33;4.00;;;;;20.14;69.20;101607.16;5038692;28;45359;-74
2023/06/28 01:19:22;;;;;;;;;3.00;2.33;;;;;20.21;69.27;101617.56;5039888;28;45201;-73
2023/06/28 01:21:51;;;;;;;;;3.33;2.67;;;;;20.21;69.07;101612.22;5047840;28;47647;-74
2023/06/28 01:24:17;;;;;;;;;4.33;3.00;;;;;20.16;69.42;101612.44;5059396;27;45268;-74
2023/06/28 01:26:43;;;;;;;;;3.00;3.00;;;;;20.14;69.49;101603.59;5059186;28;45278;-73
2023/06/28 01:29:08;;;;;;;;;5.33;5.00;;;;;20.14;70.00;101606.28;5059658;28;45271;-74
2023/06/28 01:31:36;;;;;;;;;3.33;3.33;;;;;20.14;69.04;101607.16;5058682;28;47250;-74
2023/06/28 01:34:02;;;;;;;;;3.67;3.33;;;;;20.18;69.96;101618.56;5059435;28;45374;-74
2023/06/28 01:36:29;;;;;;;;;5.33;2.33;;;;;20.15;70.73;101608.88;5058934;28;45284;-74
2023/06/28 01:38:57;;;;;;;;;7.00;4.00;;;;;20.12;70.53;101603.69;5041630;28;45431;-76
2023/06/28 01:41:23;;;;;;;;;4.00;4.00;;;;;20.15;70.86;101610.69;5046005;28;46377;-74
2023/06/28 01:43:49;;;;;;;;;3.67;2.33;;;;;20.10;71.16;101594.88;5058936;28;45233;-74
2023/06/28 01:46:14;;;;;;;;;3.67;2.67;;;;;20.11;70.94;101598.41;5059216;28;45261;-74
2023/06/28 01:48:39;;;;;;;;;4.00;4.00;;;;;20.09;71.26;101594.97;5051373;28;45432;-76
2023/06/28 01:51:05;;;;;;;;;4.67;3.67;;;;;20.10;70.85;101602.91;5038844;28;46078;-72
2023/06/28 01:53:31;;;;;;;;;4.67;4.00;;;;;20.02;70.29;101591.72;5039865;28;45230;-75
2023/06/28 01:55:56;;;;;;;;;4.00;2.67;;;;;20.09;71.11;101595.81;5056417;28;45278;-75
2023/06/28 01:58:21;;;;;;;;;3.33;3.33;;;;;20.06;71.50;101592.44;5059194;28;45384;-76
2023/06/28 02:00:47;;;;;;;;;5.67;4.33;;;;;20.00;71.51;101582.91;5058680;28;46746;-75
2023/06/28 02:03:12;;;;;;;;;4.00;4.00;;;;;19.95;72.19;101569.78;5058794;28;45333;-80
2023/06/28 02:05:39;;;;;;;;;7.00;2.33;;;;;20.01;72.53;101584.63;5057166;28;45484;-75
2023/06/28 02:08:05;;;;;;;;;4.00;4.00;;;;;19.98;73.05;101576.75;5059104;28;45480;-73
2023/06/28 02:10:30;;;;;;;;;6.00;4.67;;;;;19.96;72.56;101579.50;5058529;28;45312;-73
2023/06/28 02:12:55;;;;;;;;;3.67;3.67;;;;;19.91;73.05;101567.31;5056907;28;45481;-74
2023/06/28 02:15:21;;;;;;;;;5.33;5.33;;;;;19.94;72.93;101567.16;5058996;28;45436;-74
2023/06/28 02:17:47;;;;;;;;;4.67;4.00;;;;;19.98;73.39;101571.41;5057377;28;45374;-73
2023/06/28 02:20:14;;;;;;;;;3.00;3.00;;;;;19.80;73.79;101547.31;5056819;28;46652;-77
2023/06/28 02:22:39;;;;;;;;;5.00;3.67;;;;;19.93;74.05;101571.66;5058624;28;45197;-74
2023/06/28 02:25:06;;;;;;;;;4.33;3.00;;;;;19.94;73.72;101573.38;5058731;28;45219;-74
2023/06/28 02:27:31;;;;;;;;;4.00;4.00;;;;;19.94;73.86;101561.81;5058400;28;45167;-79
2023/06/28 02:29:56;;;;;;;;;4.67;4.00;;;;;19.87;73.98;101561.25;5058303;28;46185;-76
2023/06/28 02:32:22;;;;;;;;;5.00;4.00;;;;;19.84;74.70;101553.41;5058524;28;45416;-73
2023/06/28 02:34:48;;;;;;;;;4.33;4.00;;;;;19.88;75.53;101557.66;5045109;28;45407;-71
2023/06/28 02:37:14;;;;;;;;;6.00;4.00;;;;;19.88;74.19;101557.66;5038481;28;45313;-69
2023/06/28 02:39:39;;;;;;;;;8.00;4.00;;;;;19.89;75.23;101554.03;5038046;28;45611;-75
2023/06/28 02:42:05;;;;;;;;;6.33;3.33;;;;;19.85;75.20;101555.09;5038000;28;45365;-73
2023/06/28 02:44:30;;;;;;;;;5.00;4.00;;;;;19.92;76.02;101564.56;5038166;28;45290;-74
2023/06/28 02:46:55;;;;;;;;;6.00;6.00;;;;;19.91;75.31;101556.63;5038265;28;45314;-72
2023/06/28 02:49:21;;;;;;;;;6.33;4.00;;;;;19.85;76.11;101557.78;5048940;28;46259;-70
2023/06/28 02:51:49;;;;;;;;;5.00;3.00;;;;;19.91;75.57;101556.63;5042474;28;45324;-76
2023/06/28 02:54:14;;;;;;;;;5.00;3.33;;;;;19.92;75.22;101558.34;5052227;28;45190;-70
2023/06/28 02:56:39;;;;;;;;;5.67;4.67;;;;;19.90;76.09;101554.91;5058125;28;45446;-73
2023/06/28 02:59:05;;;;;;;;;8.00;6.00;;;;;19.89;76.19;101559.38;5057795;28;46316;-72
2023/06/28 03:01:30;;;;;;;;;4.67;4.33;;;;;19.92;75.64;101559.22;5057947;28;45192;-71
2023/06/28 03:03:55;;;;;;;;;5.00;3.67;;;;;19.91;75.29;101554.84;5056985;28;45237;-72
2023/06/28 03:06:20;;;;;;;;;4.67;4.67;;;;;19.65;76.18;101524.00;5057689;28;45434;-73
2023/06/28 03:08:46;;;;;;;;;4.00;4.00;;;;;19.86;77.29;101556.00;5051155;28;46169;-72
2023/06/28 03:11:11;;;;;;;;;9.00;4.67;;;;;19.84;76.75;101556.06;5037607;28;45346;-73
2023/06/28 03:13:36;;;;;;;;;7.00;4.67;;;;;19.87;76.62;101563.94;5037803;28;45350;-73
2023/06/28 03:16:02;;;;;;;;;5.67;4.67;;;;;19.56;76.58;101505.72;5045975;28;45483;-73
2023/06/28 03:18:27;;;;;;;;;6.00;4.67;;;;;19.85;76.37;101559.59;5057597;28;46208;-72
2023/06/28 03:20:53;;;;;;;;;6.00;4.00;;;;;19.85;76.72;101551.56;5057486;28;45466;-73
2023/06/28 03:23:18;;;;;;;;;8.67;4.67;;;;;19.80;77.47;101546.47;5057832;28;45766;-72
2023/06/28 03:25:43;;;;;;;;;5.00;5.00;;;;;19.83;76.32;101548.97;5057858;28;45476;-72
2023/06/28 03:28:10;;;;;;;;;6.67;3.00;;;;;19.83;76.08;101551.66;5057273;28;46917;-71
2023/06/28 03:30:35;;;;;;;;;6.33;3.33;;;;;19.62;77.43;101514.31;5056109;28;45283;-72
2023/06/28 03:33:00;;;;;;;;;5.67;5.00;;;;;19.80;76.32;101539.31;5057350;28;45347;-72
2023/06/28 03:35:26;;;;;;;;;8.33;4.00;;;;;19.73;77.49;101532.50;5057719;28;45391;-72
2023/06/28 03:37:55;;;;;;;;;6.00;5.33;;;;;19.75;76.83;101540.44;5057414;28;46615;-72
2023/06/28 03:40:21;;;;;;;;;4.67;4.67;;;;;19.75;77.53;101538.66;5056716;28;45272;-72
2023/06/28 03:42:48;;;;;;;;;7.00;4.33;;;;;19.57;78.32;101513.66;5057278;28;45473;-72
2023/06/28 03:45:14;;;;;;;;;8.33;5.33;;;;;19.72;78.85;101541.47;5055729;28;46815;-72
2023/06/28 03:47:39;;;;;;;;;8.33;4.00;;;;;19.64;78.27;101527.59;5057126;28;46197;-72
2023/06/28 03:50:05;;;;;;;;;9.67;4.00;;;;;19.67;78.83;101536.31;5057270;28;45380;-73
2023/06/28 03:52:31;;;;;;;;;5.00;5.00;;;;;19.68;78.00;101531.88;5057357;28;45349;-73
2023/06/28 03:54:56;;;;;;;;;6.00;6.00;;;;;19.68;78.29;101537.22;5057414;28;45409;-77
2023/06/28 03:57:21;;;;;;;;;6.33;5.00;;;;;19.47;79.72;101501.69;5057267;28;46280;-73
2023/06/28 03:59:47;;;;;;;;;8.00;7.00;;;;;19.66;79.94;101537.28;5053133;28;45625;-72
2023/06/28 04:02:13;;;;;;;;;6.00;5.00;;;;;19.65;79.65;101526.69;5037328;28;45219;-72
2023/06/28 04:04:39;;;;;;;;;10.00;4.67;;;;;19.70;78.42;101531.78;5038447;28;45306;-71
2023/06/28 04:07:04;;;;;;;;;7.00;5.00;;;;;19.67;79.81;101524.78;5052522;28;46144;-72
2023/06/28 04:09:30;;;;;;;;;4.00;4.00;;;;;19.63;79.28;101523.19;5036979;28;45501;-71
2023/06/28 04:11:55;;;;;;;;;5.00;3.67;;;;;19.64;80.47;101532.94;5037106;28;45218;-71
2023/06/28 04:14:22;;;;;;;;;5.33;5.33;;;;;19.65;80.45;101530.19;5037086;28;45397;-71
2023/06/28 04:16:47;;;;;;;;;8.00;5.00;;;;;19.66;79.88;101525.72;5041557;28;47470;-73
2023/06/28 04:19:12;;;;;;;;;4.00;4.00;;;;;19.65;80.95;101522.19;5050379;28;45372;-72
2023/06/28 04:21:38;;;;;;;;;8.33;4.33;;;;;19.64;79.96;101522.25;5036902;28;45387;-72
2023/06/28 04:24:04;;;;;;;;;5.67;3.33;;;;;19.59;80.77;101519.81;5037969;28;45436;-72
2023/06/28 04:26:29;;;;;;;;;5.00;5.00;;;;;19.68;81.60;101529.19;5036716;28;47578;-73
2023/06/28 04:28:54;;;;;;;;;6.00;4.33;;;;;19.69;79.41;101528.22;5039586;28;45431;-76
2023/06/28 04:31:19;;;;;;;;;3.00;3.00;;;;;19.68;81.12;101529.19;5056971;28;45506;-76
2023/06/28 04:33:46;;;;;;;;;5.00;5.00;;;;;19.65;80.48;101526.69;5057200;28;45462;-76
2023/06/28 04:36:11;;;;;;;;;6.00;3.00;;;;;19.65;80.11;101526.69;5056598;28;46355;-74
2023/06/28 04:38:39;;;;;;;;;7.00;6.00;;;;;19.64;82.33;101525.78;5052812;28;45392;-74
2023/06/28 04:41:04;;;;;;;;;5.00;5.00;;;;;19.69;82.10;101535.41;5041389;28;45294;-70
2023/06/28 04:43:38;;;;;;;;;6.33;5.33;;;;;19.70;81.69;101527.31;5056604;28;45494;-75
2023/06/28 04:46:04;;;;;;;;;23.33;14.33;;;;;19.73;82.43;101534.31;5041389;28;46372;-77
2023/06/28 04:48:29;;;;;;;;;8.67;6.33;;;;;19.70;81.33;101519.28;5046023;28;45287;-78
2023/06/28 04:50:54;;;;;;;;;11.67;9.00;;;;;19.69;82.35;101522.88;5038045;28;45313;-75
2023/06/28 04:53:19;;;;;;;;;6.33;6.33;;;;;19.76;82.81;101531.47;5040312;28;45249;-74
2023/06/28 04:55:46;;;;;;;;;9.00;6.00;;;;;19.74;82.58;101533.38;5041221;28;46751;-73
2023/06/28 04:58:11;;;;;;;;;4.67;4.33;;;;;19.74;82.80;101525.34;5058605;28;45652;-73
2023/06/28 05:00:37;;;;;;;;;8.00;6.33;;;;;19.80;82.93;101541.13;5047084;28;45407;-73
2023/06/28 05:03:02;;;;;;;;;5.33;4.33;;;;;19.79;81.77;101534.03;5039937;28;45753;-73
2023/06/28 05:05:29;;;;;;;;;7.00;6.00;;;;;19.78;82.71;101542.94;5050964;28;45385;-73
2023/06/28 05:07:55;;;;;;;;;11.00;8.00;;;;;19.80;83.48;101536.63;5059314;28;45307;-72
2023/06/28 05:10:22;;;;;;;;;7.00;6.00;;;;;19.79;82.28;101532.25;5058288;28;45496;-73
2023/06/28 05:12:51;;;;;;;;;8.33;6.33;;;;;19.81;83.18;101535.69;5059908;28;45270;-72
2023/06/28 05:15:20;;;;;;;;;5.67;5.00;;;;;19.77;82.53;101523.38;5044415;28;47272;-72
2023/06/28 05:17:46;;;;;;;;;12.00;9.67;;;;;19.84;83.10;101534.69;5058220;28;45442;-73
2023/06/28 05:20:11;;;;;;;;;5.67;4.00;;;;;19.80;83.98;101519.75;5058030;28;45463;-74
2023/06/28 05:22:48;;;;;;;;;15.33;7.33;;;;;19.86;82.98;101526.59;5059529;28;45416;-75
2023/06/28 05:25:13;;;;;;;;;7.00;6.00;;;;;19.87;83.42;101523.84;5054464;28;45611;-73
2023/06/28 05:27:38;;;;;;;;;11.00;6.00;;;;;19.88;83.86;101528.25;5057278;28;45420;-81
2023/06/28 05:30:04;;;;;;;;;11.00;6.67;;;;;19.83;83.85;101506.22;5040344;28;45247;-82
2023/06/28 05:32:30;;;;;;;;;6.00;6.00;;;;;19.90;82.80;101509.47;5040900;28;45411;-83
2023/06/28 05:34:55;;;;;;;;;7.00;6.00;;;;;19.92;83.83;101508.44;5038973;28;46192;-81
2023/06/28 05:37:20;;;;;;;;;7.00;7.00;;;;;19.94;83.55;101506.56;5039674;28;45406;-82
2023/06/28 05:39:47;;;;;;;;;10.33;8.00;;;;;19.99;83.46;101512.53;5055113;28;45598;-82
2023/06/28 05:42:12;;;;;;;;;8.67;7.33;;;;;20.03;82.73;101512.38;5039376;28;45378;-81
2023/06/28 05:44:38;;;;;;;;;6.00;6.00;;;;;20.08;83.99;101518.38;5056568;28;46802;-81
2023/06/28 05:47:03;;;;;;;;;7.33;7.33;;;;;19.99;83.00;101507.19;5045971;28;45396;-81
2023/06/28 05:49:29;;;;;;;;;7.00;7.00;;;;;20.10;83.24;101516.47;5039321;28;45214;-80
2023/06/28 05:51:54;;;;;;;;;7.00;7.00;;;;;20.15;84.09;101519.78;5041616;28;45344;-78
2023/06/28 05:54:19;;;;;;;;;11.67;9.33;;;;;20.13;83.90;101502.97;5054495;28;47245;-79
2023/06/28 05:56:45;;;;;;;;;12.33;8.00;;;;;20.27;82.86;101519.13;5058831;28;45443;-78
2023/06/28 05:59:10;;;;;;;;;16.00;12.00;;;;;20.28;82.96;101517.34;5047302;28;45333;-85
2023/06/28 06:01:35;;;;;;;;;9.67;6.00;;;;;20.34;83.09;101527.72;5038322;28;45360;-81
2023/06/28 06:04:01;;;;;;;;;11.33;8.00;;;;;20.40;82.96;101518.53;5050003;28;46181;-81
2023/06/28 06:06:26;;;;;;;;;15.67;12.33;;;;;20.17;82.08;101477.78;5057874;28;45329;-80
2023/06/28 06:08:51;;;;;;;;;11.67;8.00;;;;;20.50;81.84;101528.66;5039500;28;45664;-78
2023/06/28 06:11:17;;;;;;;;;11.00;9.33;;;;;20.49;82.53;101524.28;5039493;28;45408;-80
2023/06/28 06:13:42;;;;;;;;;9.67;7.67;;;;;20.58;82.34;101527.38;5054428;28;46504;-81
2023/06/28 06:16:07;;;;;;;;;10.33;7.00;;;;;20.62;81.24;101531.63;5058638;28;45253;-78
2023/06/28 06:18:36;;;;;;;;;9.67;9.33;;;;;20.63;82.11;101530.69;5058786;28;45358;-81
2023/06/28 06:21:01;;;;;;;;;13.00;9.00;;;;;20.61;82.26;101538.81;5058743;28;45528;-81
2023/06/28 06:23:27;;;;;;;;;8.33;8.00;;;;;20.60;82.60;101536.22;5058273;28;46693;-81
2023/06/28 06:25:52;;;;;;;;;20.67;16.67;;;;;20.62;82.73;101534.31;5058805;28;45380;-79
2023/06/28 06:28:17;;;;;;;;;14.00;11.33;;;;;20.64;83.10;101533.28;5058489;28;45474;-81
2023/06/28 06:30:43;;;;;;;;;12.33;9.33;;;;;20.68;82.38;101531.34;5054757;28;45610;-79
2023/06/28 06:33:08;;;;;;;;;11.00;8.00;;;;;20.69;82.33;101535.75;5058305;28;46595;-78
2023/06/28 06:35:33;;;;;;;;;13.33;10.00;;;;;20.52;83.37;101502.69;5058124;28;45419;-80
2023/06/28 06:37:59;;;;;;;;;10.67;8.33;;;;;20.72;83.08;101529.38;5058449;28;45309;-78
2023/06/28 06:40:24;;;;;;;;;16.33;14.00;;;;;20.74;82.44;101524.81;5058842;28;45319;-80
2023/06/28 06:42:49;;;;;;;;;13.00;12.67;;;;;20.67;83.07;101510.91;5058108;28;46606;-79
2023/06/28 06:45:17;;;;;;;;;15.67;11.33;;;;;20.76;82.58;101522.94;5058115;28;45319;-81
2023/06/28 06:47:44;;;;;;;;;19.33;14.00;;;;;20.81;83.32;101532.44;5058449;28;45157;-79
2023/06/28 06:50:10;;;;;;;;;16.67;12.33;;;;;20.81;82.22;101523.53;5058459;28;46031;-75
2023/06/28 06:52:36;;;;;;;;;15.67;12.67;;;;;;;;5058806;27;46890;-75
2023/06/28 06:55:02;;;;;;;;;15.33;12.67;;;;;20.91;83.17;101535.47;5058042;28;45190;-74
2023/06/28 06:57:27;;;;;;;;;14.00;9.67;;;;;20.95;82.84;101534.38;5057894;28;45422;-76
2023/06/28 06:59:53;;;;;;;;;14.33;12.67;;;;;21.04;82.32;101533.00;5057733;28;45434;-76
2023/06/28 07:02:19;;;;;;;;;11.67;11.33;;;;;21.15;82.10;101538.63;5056871;28;45403;-76
2023/06/28 07:04:45;;;;;;;;;14.67;13.00;;;;;21.26;81.60;101538.06;5056501;28;45441;-78
2023/06/28 07:07:10;;;;;;;;;15.33;12.33;;;;;21.25;82.03;101535.44;5057823;28;45391;-77
2023/06/28 07:09:35;;;;;;;;;14.33;12.67;;;;;21.28;81.84;101532.63;5058127;28;45411;-76
2023/06/28 07:12:01;;;;;;;;;13.00;12.67;;;;;21.30;80.98;101542.28;5057598;28;46505;-77
2023/06/28 07:14:26;;;;;;;;;14.33;12.33;;;;;21.38;81.59;101549.91;5056362;28;45420;-76
2023/06/28 07:16:51;;;;;;;;;13.33;10.33;;;;;21.35;80.79;101537.53;5057538;28;45502;-75
2023/06/28 07:19:17;;;;;;;;;14.00;14.00;;;;;21.40;81.80;101554.22;5058024;28;45393;-74
2023/06/28 07:21:42;;;;;;;;;14.33;12.33;;;;;21.40;81.95;101539.97;5057491;28;46006;-76
2023/06/28 07:24:08;;;;;;;;;15.67;12.67;;;;;21.49;81.41;101542.16;5057521;28;45171;-75
2023/06/28 07:26:33;;;;;;;;;15.00;11.67;;;;;21.55;81.50;101547.19;5057565;28;45406;-75
2023/06/28 07:28:59;;;;;;;;;15.00;12.33;;;;;21.61;81.02;101542.41;5056351;28;45225;-76
2023/06/28 07:31:24;;;;;;;;;21.00;14.33;;;;;21.63;79.94;101553.94;5057204;28;46796;-75
2023/06/28 07:33:50;;;;;;;;;14.67;13.33;;;;;21.73;80.52;101560.50;5057308;28;45225;-75
2023/06/28 07:36:15;;;;;;;;;15.33;12.67;;;;;21.72;79.75;101545.34;5057538;28;45454;-76
2023/06/28 07:38:40;;;;;;;;;15.67;14.67;;;;;21.77;79.67;101563.84;5057635;28;45384;-76
2023/06/28 07:41:06;;;;;;;;;18.67;15.67;;;;;21.78;80.40;101557.53;5055798;28;45343;-76
2023/06/28 07:43:31;;;;;;;;;14.00;11.67;;;;;21.73;80.37;101552.47;5057208;28;45509;-78
2023/06/28 07:45:59;;;;;;;;;14.67;13.33;;;;;21.66;80.86;101545.72;5056952;28;45372;-75
2023/06/28 07:48:26;;;;;;;;;13.00;12.00;;;;;21.71;80.56;101560.59;5057317;27;45528;-77
2023/06/28 07:50:51;;;;;;;;;19.00;13.33;;;;;21.74;80.80;101568.44;5054296;28;45296;-77
2023/06/28 07:53:17;;;;;;;;;13.67;11.33;;;;;21.74;81.20;101572.97;5047257;28;45432;-76
2023/06/28 07:55:42;;;;;;;;;19.33;17.33;;;;;21.72;80.93;101559.63;5047700;28;45427;-76
2023/06/28 07:58:07;;;;;;;;;14.33;13.00;;;;;21.76;80.08;101560.31;5047322;28;45360;-77
2023/06/28 08:00:33;;;;;;;;;19.00;13.67;;;;;21.72;80.65;101561.44;5044862;28;46310;-77
2023/06/28 08:02:58;;;;;;;;;12.67;11.00;;;;;21.76;80.22;101565.69;5047362;28;45279;-76
2023/06/28 08:05:24;;;;;;;;;14.67;14.67;;;;;21.77;80.41;101567.41;5049311;28;45234;-76
2023/06/28 08:07:53;;;;;;;;;17.67;12.67;;;;;21.76;80.20;101565.69;5047531;28;45271;-75
2023/06/28 08:10:18;;;;;;;;;19.33;14.33;;;;;21.71;81.09;101570.44;5049780;28;47650;-75
2023/06/28 08:12:44;;;;;;;;;15.33;13.33;;;;;21.75;81.05;101569.31;5051551;28;45419;-76
2023/06/28 08:15:09;;;;;;;;;15.67;13.67;;;;;21.77;81.36;101566.53;5048508;28;45471;-76
2023/06/28 08:17:34;;;;;;;;;16.33;13.67;;;;;21.68;81.14;101544.69;5047293;28;45466;-74
2023/06/28 08:20:00;;;;;;;;;15.00;12.33;;;;;21.87;80.97;101565.94;5045262;28;46485;-73
2023/06/28 08:22:25;;;;;;;;;13.00;13.00;;;;;21.90;80.98;101555.03;5046016;28;45536;-73
2023/06/28 08:24:51;;;;;;;;;18.33;15.00;;;;;21.94;80.91;101555.69;5047033;28;45412;-73
2023/06/28 08:27:16;;;;;;;;;14.33;14.00;;;;;22.08;80.59;101562.97;5048671;28;45502;-73
2023/06/28 08:29:41;;;;;;;;;56.75;46.25;;;;;22.14;79.83;101561.75;5042377;28;46166;-72
2023/06/28 08:32:07;;;;;;;;;8.67;5.00;;;;;22.10;79.54;101544.94;5053851;28;45423;-76
2023/06/28 08:34:32;;;;;;;;;18.00;15.33;;;;;22.29;79.14;101566.19;5054031;28;45417;-74
2023/06/28 08:36:58;;;;;;;;;17.67;15.00;;;;;22.28;79.63;101561.78;5048950;28;45690;-75
2023/06/28 08:39:23;;;;;;;;;16.33;14.33;;;;;22.25;78.62;101562.84;5040602;28;46229;-77
2023/06/28 08:41:51;;;;;;;;;22.33;15.00;;;;;22.36;79.28;101572.09;5049633;28;45462;-75
2023/06/28 08:44:19;;;;;;;;;17.00;14.00;;;;;22.38;79.05;101564.81;5049945;28;45454;-78
2023/06/28 08:46:47;;;;;;;;;16.00;14.00;;;;;22.38;79.46;101564.81;5052427;28;45379;-75
2023/06/28 08:49:14;;;;;;;;;15.67;12.67;;;;;22.31;79.50;101558.94;5055157;28;45470;-77
2023/06/28 08:51:40;;;;;;;;;33.00;30.00;;;;;22.36;79.09;101572.09;5045621;28;45340;-75
2023/06/28 08:54:07;;;;;;;;;16.33;12.67;;;;;22.27;78.61;101552.84;5055958;28;45281;-79
2023/06/28 08:56:33;;;;;;;;;17.00;15.67;;;;;22.38;79.63;101571.06;5058783;28;45470;-77
2023/06/28 08:58:58;;;;;;;;;13.67;12.00;;;;;22.41;79.55;101570.88;5059352;28;46122;-76
2023/06/28 09:01:24;;;;;;;;;17.00;13.33;;;;;22.46;78.96;101567.91;5059338;28;45483;-74
2023/06/28 09:03:50;;;;;;;;;15.67;15.00;;;;;22.41;78.61;101560.13;5058998;28;45525;-73
2023/06/28 09:06:16;;;;;;;;;16.67;14.00;;;;;22.51;79.20;101571.19;5045779;28;45530;-75
2023/06/28 09:08:43;;;;;;;;;16.67;16.33;;;;;22.52;78.16;101572.91;5055573;28;45979;-70
2023/06/28 09:11:09;;;;;;;;;21.00;15.00;;;;;22.58;78.09;101571.66;5041768;28;46072;-75
2023/06/28 09:13:34;;;;;;;;;13.67;13.00;;;;;22.66;78.24;101571.22;5045122;28;45225;-76
2023/06/28 09:16:01;;;;;;;;;23.00;18.33;;;;;22.67;77.88;101555.03;5045555;28;45632;-75
2023/06/28 09:18:26;;;;;;;;;15.33;14.00;;;;;22.66;77.00;101539.00;5040279;28;46292;-75
2023/06/28 09:20:53;;;;;;;;;13.33;13.33;;;;;22.95;76.40;101564.91;5043621;28;45266;-75
2023/06/28 09:23:26;;;;;;;;;15.67;14.33;;;;;22.99;76.29;101565.59;5054664;28;45447;-76
2023/06/28 09:25:52;;;;;;;;;14.67;13.00;;;;;23.04;76.44;101562.63;5055333;28;45641;-74
2023/06/28 09:28:19;;;;;;;;;17.33;13.67;;;;;23.05;76.07;101556.28;5041167;28;45539;-75
2023/06/28 09:30:50;;;;;;;;;22.00;18.67;;;;;23.17;76.21;101566.28;5039015;28;45332;-74
2023/06/28 09:33:17;;;;;;;;;17.00;15.33;;;;;23.23;75.73;101565.03;5039273;28;45281;-75
2023/06/28 09:35:44;;;;;;;;;16.33;13.67;;;;;23.12;75.74;101531.66;5039313;28;45416;-76
2023/06/28 09:38:09;;;;;;;;;17.00;15.67;;;;;23.33;75.03;101559.97;5047485;28;45316;-74
2023/06/28 09:40:35;;;;;;;;;21.00;15.00;;;;;23.34;75.19;101556.28;5058512;28;45465;-75
2023/06/28 09:43:01;;;;;;;;;14.67;13.33;;;;;23.44;75.39;101565.50;5059077;28;45374;-77
2023/06/28 09:45:30;;;;;;;;;17.33;16.67;;;;;23.57;74.68;101566.44;5058903;28;45445;-73
2023/06/28 09:48:02;;;;;;;;;17.67;15.00;;;;;23.66;74.07;101564.97;5058556;28;46479;-76
2023/06/28 09:50:39;;;;;;;;;19.67;17.00;;;;;23.74;73.18;101568.00;5058902;28;45427;-76
2023/06/28 09:53:08;;;;;;;;;21.67;17.67;;;;;23.74;73.35;101561.78;5058958;28;45420;-76
2023/06/28 09:55:34;;;;;;;;;39.00;33.00;;;;;23.73;73.54;101558.25;5058913;27;45266;-77
2023/06/28 09:58:00;;;;;;;;;18.67;16.33;;;;;23.75;73.41;101561.69;5058924;28;45407;-76
2023/06/28 10:00:30;;;;;;;;;21.33;19.67;;;;;23.72;73.35;101564.56;5058198;28;46204;-77
2023/06/28 10:02:58;;;;;;;;;24.00;16.00;;;;;23.73;73.26;101560.03;5058766;28;45443;-74
2023/06/28 10:05:25;;;;;;;;;27.00;21.67;;;;;23.69;73.90;101553.16;5058780;28;45440;-76
2023/06/28 10:07:52;;;;;;;;;22.00;19.33;;;;;23.66;73.45;101546.16;5058286;28;45527;-76
2023/06/28 10:10:18;;;;;;;;;15.50;15.00;;;;;23.63;73.41;101557.13;5058479;28;45341;-76
2023/06/28 10:12:45;;;;;;;;;20.67;16.33;;;;;23.58;74.22;101553.84;5058021;28;45467;-75
2023/06/28 10:15:14;;;;;;;;;19.67;14.33;;;;;23.59;74.40;101559.13;5052258;28;45744;-76
2023/06/28 10:17:41;;;;;;;;;24.00;17.00;;;;;23.47;73.78;101528.53;5053886;28;46270;-76
2023/06/28 10:20:07;;;;;;;;;21.33;17.00;;;;;23.72;73.74;101552.97;5058278;28;45401;-75
2023/06/28 10:22:33;;;;;;;;;27.33;21.33;;;;;23.78;73.16;101536.41;5053668;28;45499;-76
2023/06/28 10:25:01;;;;;;;;;17.33;14.33;;;;;23.93;72.92;101540.81;5055139;28;45504;-76
2023/06/28 10:27:27;;;;;;;;;31.33;22.67;;;;;24.10;72.61;101541.50;5042430;28;45769;-76
2023/06/28 10:29:54;;;;;;;;;25.00;21.00;;;;;24.10;72.61;101541.50;5017213;28;683268;-76
2023/06/28 10:32:20;;;;;;;;;31.00;26.67;;;;;24.44;71.35;101529.31;5000635;28;1416619;-74
2023/06/28 10:34:47;;;;;;;;;30.00;26.67;;;;;24.64;70.59;101535.16;5050041;28;45458;-75
2023/06/28 10:37:13;;;;;;;;;15.67;14.33;;;;;24.81;69.86;101539.38;5053532;28;45504;-74
2023/06/28 10:39:39;;;;;;;;;22.67;20.00;;;;;25.02;68.83;101550.44;5058052;28;45314;-74
2023/06/28 10:42:05;;;;;;;;;29.33;26.00;;;;;25.06;68.91;101521.47;5058103;28;45348;-76
2023/06/28 10:44:31;;;;;;;;;21.00;17.67;;;;;25.34;67.66;101545.47;5058326;28;45162;-74
2023/06/28 10:47:13;;;;;;;;;20.00;18.00;;;;;25.34;67.50;101550.88;5051474;28;46684;-77
2023/06/28 10:49:41;;;;;;;;;20.33;16.00;;;;;25.29;67.01;101544.06;5042016;28;45569;-77
2023/06/28 10:52:17;;;;;;;;;24.33;23.00;;;;;25.30;67.15;101554.72;5049294;28;45268;-76
2023/06/28 10:54:42;;;;;;;;;40.00;32.67;;;;;25.20;67.22;101546.44;5038180;28;45446;-76
2023/06/28 10:57:11;;;;;;;;;28.67;24.33;;;;;25.18;67.08;101559.19;5037537;28;47012;-75
2023/06/28 10:59:40;;;;;;;;;40.00;30.33;;;;;25.12;67.38;101553.34;5037778;28;45467;-76
2023/06/28 11:02:06;;;;;;;;;33.67;27.67;;;;;25.05;68.10;101552.91;5041730;28;45380;-76
2023/06/28 11:04:31;;;;;;;;;26.33;25.67;;;;;25.08;67.86;101550.03;5057104;28;45399;-76
2023/06/28 11:07:02;;;;;;;;;55.00;40.67;;;;;25.16;67.35;101550.31;5047511;28;47295;-79
2023/06/28 11:09:28;;;;;;;;;28.67;21.67;;;;;25.22;67.22;101553.56;5050975;28;45420;-76
2023/06/28 11:11:56;;;;;;;;;26.33;21.33;;;;;25.27;67.47;101540.59;5055482;28;45490;-76
2023/06/28 11:14:23;;;;;;;;;23.33;21.67;;;;;25.42;66.69;101544.91;5048664;28;45551;-77